sensor_id;sensor_type;location;lat;lon;timestamp;P1;durP1;ratioP1;P2;durP2;ratioP2
14342;SDS011;7255;53.596;9.960;2022-11-20T00:00:51;6.90;;;5.60;;
14342;SDS011;7255;53.596;9.960;2022-11-20T00:03:17;5.93;;;5.33;;
14342;SDS011;7255;53.596;9.960;2022-11-20T00:05:44;6.70;;;5.83;;
14342;SDS011;7255;53.596;9.960;2022-11-20T00:08:11;5.20;;;4.67;;
14342;SDS011;7255;53.596;9.960;2022-11-20T00:10:38;6.77;;;4.90;;
14342;SDS011;7255;53.596;9.960;2022-11-20T00:13:05;5.30;;;4.73;;
14342;SDS011;7255;53.596;9.960;2022-11-20T00:15:32;5.27;;;4.80;;
14342;SDS011;7255;53.596;9.960;2022-11-20T00:17:58;8.53;;;4.93;;
14342;SDS011;7255;53.596;9.960;2022-11-20T00:20:25;5.37;;;4.57;;
14342;SDS011;7255;53.596;9.960;2022-11-20T00:22:51;5.33;;;4.83;;
14342;SDS011;7255;53.596;9.960;2022-11-20T00:25:19;5.27;;;4.57;;
14342;SDS011;7255;53.596;9.960;2022-11-20T00:27:45;5.40;;;4.93;;
14342;SDS011;7255;53.596;9.960;2022-11-20T00:30:11;4.80;;;4.07;;
14342;SDS011;7255;53.596;9.960;2022-11-20T00:32:38;6.83;;;5.10;;
14342;SDS011;7255;53.596;9.960;2022-11-20T00:35:04;5.73;;;4.80;;
14342;SDS011;7255;53.596;9.960;2022-11-20T00:37:31;5.67;;;4.77;;
14342;SDS011;7255;53.596;9.960;2022-11-20T00:39:57;4.93;;;4.47;;
14342;SDS011;7255;53.596;9.960;2022-11-20T00:42:25;5.30;;;4.30;;
14342;SDS011;7255;53.596;9.960;2022-11-20T00:44:51;6.57;;;4.80;;
14342;SDS011;7255;53.596;9.960;2022-11-20T00:47:17;6.53;;;4.57;;
14342;SDS011;7255;53.596;9.960;2022-11-20T00:49:44;4.70;;;4.27;;
14342;SDS011;7255;53.596;9.960;2022-11-20T00:52:10;5.70;;;4.37;;
14342;SDS011;7255;53.596;9.960;2022-11-20T00:54:36;6.23;;;5.10;;
14342;SDS011;7255;53.596;9.960;2022-11-20T00:57:03;6.53;;;4.57;;
14342;SDS011;7255;53.596;9.960;2022-11-20T00:59:30;5.63;;;5.13;;
14342;SDS011;7255;53.596;9.960;2022-11-20T01:01:57;5.17;;;4.67;;
14342;SDS011;7255;53.596;9.960;2022-11-20T01:04:23;4.90;;;4.43;;
14342;SDS011;7255;53.596;9.960;2022-11-20T01:06:49;6.73;;;5.27;;
14342;SDS011;7255;53.596;9.960;2022-11-20T01:09:16;5.40;;;4.87;;
14342;SDS011;7255;53.596;9.960;2022-11-20T01:11:42;6.83;;;4.83;;
14342;SDS011;7255;53.596;9.960;2022-11-20T01:14:10;6.27;;;5.27;;
14342;SDS011;7255;53.596;9.960;2022-11-20T01:16:40;5.77;;;4.97;;
14342;SDS011;7255;53.596;9.960;2022-11-20T01:19:10;8.23;;;5.60;;
14342;SDS011;7255;53.596;9.960;2022-11-20T01:21:38;6.03;;;4.83;;
14342;SDS011;7255;53.596;9.960;2022-11-20T01:24:06;6.20;;;4.87;;
14342;SDS011;7255;53.596;9.960;2022-11-20T01:26:34;6.03;;;5.10;;
14342;SDS011;7255;53.596;9.960;2022-11-20T01:29:02;7.10;;;5.03;;
14342;SDS011;7255;53.596;9.960;2022-11-20T01:31:31;7.23;;;5.60;;
14342;SDS011;7255;53.596;9.960;2022-11-20T01:34:00;7.50;;;5.53;;
14342;SDS011;7255;53.596;9.960;2022-11-20T01:36:29;7.07;;;4.90;;
14342;SDS011;7255;53.596;9.960;2022-11-20T01:38:58;6.37;;;5.77;;
14342;SDS011;7255;53.596;9.960;2022-11-20T01:41:26;6.73;;;5.30;;
14342;SDS011;7255;53.596;9.960;2022-11-20T01:44:12;7.23;;;5.67;;
14342;SDS011;7255;53.596;9.960;2022-11-20T01:46:42;8.03;;;5.60;;
14342;SDS011;7255;53.596;9.960;2022-11-20T01:49:19;10.17;;;5.80;;
14342;SDS011;7255;53.596;9.960;2022-11-20T01:51:50;6.87;;;5.73;;
14342;SDS011;7255;53.596;9.960;2022-11-20T01:54:23;5.93;;;5.33;;
14342;SDS011;7255;53.596;9.960;2022-11-20T01:56:52;6.57;;;5.67;;
14342;SDS011;7255;53.596;9.960;2022-11-20T01:59:23;7.13;;;5.70;;
14342;SDS011;7255;53.596;9.960;2022-11-20T02:01:52;7.20;;;6.50;;
14342;SDS011;7255;53.596;9.960;2022-11-20T02:04:20;10.83;;;6.13;;
14342;SDS011;7255;53.596;9.960;2022-11-20T02:06:49;9.93;;;5.50;;
14342;SDS011;7255;53.596;9.960;2022-11-20T02:09:19;10.93;;;6.47;;
14342;SDS011;7255;53.596;9.960;2022-11-20T02:11:45;7.07;;;5.80;;
14342;SDS011;7255;53.596;9.960;2022-11-20T02:14:12;7.27;;;5.83;;
14342;SDS011;7255;53.596;9.960;2022-11-20T02:16:40;8.47;;;6.23;;
14342;SDS011;7255;53.596;9.960;2022-11-20T02:19:13;7.77;;;6.27;;
14342;SDS011;7255;53.596;9.960;2022-11-20T02:21:49;7.03;;;5.93;;
14342;SDS011;7255;53.596;9.960;2022-11-20T02:24:23;6.87;;;5.73;;
14342;SDS011;7255;53.596;9.960;2022-11-20T02:26:51;6.27;;;5.43;;
14342;SDS011;7255;53.596;9.960;2022-11-20T02:29:22;6.50;;;5.87;;
14342;SDS011;7255;53.596;9.960;2022-11-20T02:31:51;7.40;;;5.40;;
14342;SDS011;7255;53.596;9.960;2022-11-20T02:34:20;6.70;;;5.53;;
14342;SDS011;7255;53.596;9.960;2022-11-20T02:36:46;5.80;;;5.20;;
14342;SDS011;7255;53.596;9.960;2022-11-20T02:39:15;5.70;;;5.10;;
14342;SDS011;7255;53.596;9.960;2022-11-20T02:41:43;8.30;;;5.60;;
14342;SDS011;7255;53.596;9.960;2022-11-20T02:44:10;6.23;;;5.50;;
14342;SDS011;7255;53.596;9.960;2022-11-20T02:46:36;10.00;;;6.07;;
14342;SDS011;7255;53.596;9.960;2022-11-20T02:49:03;6.73;;;6.03;;
14342;SDS011;7255;53.596;9.960;2022-11-20T02:51:31;6.47;;;5.70;;
14342;SDS011;7255;53.596;9.960;2022-11-20T02:53:57;8.03;;;5.97;;
14342;SDS011;7255;53.596;9.960;2022-11-20T02:56:24;7.07;;;5.73;;
14342;SDS011;7255;53.596;9.960;2022-11-20T02:58:51;6.07;;;5.50;;
14342;SDS011;7255;53.596;9.960;2022-11-20T03:01:18;7.80;;;5.73;;
14342;SDS011;7255;53.596;9.960;2022-11-20T03:03:44;7.83;;;5.80;;
14342;SDS011;7255;53.596;9.960;2022-11-20T03:06:10;7.23;;;6.33;;
14342;SDS011;7255;53.596;9.960;2022-11-20T03:08:37;7.40;;;6.50;;
14342;SDS011;7255;53.596;9.960;2022-11-20T03:11:04;8.87;;;6.83;;
14342;SDS011;7255;53.596;9.960;2022-11-20T03:13:31;8.73;;;6.10;;
14342;SDS011;7255;53.596;9.960;2022-11-20T03:16:04;6.87;;;6.17;;
14342;SDS011;7255;53.596;9.960;2022-11-20T03:18:31;7.53;;;5.73;;
14342;SDS011;7255;53.596;9.960;2022-11-20T03:20:58;7.80;;;6.93;;
14342;SDS011;7255;53.596;9.960;2022-11-20T03:23:24;7.87;;;6.17;;
14342;SDS011;7255;53.596;9.960;2022-11-20T03:25:51;5.93;;;5.33;;
14342;SDS011;7255;53.596;9.960;2022-11-20T03:28:17;7.33;;;6.10;;
14342;SDS011;7255;53.596;9.960;2022-11-20T03:30:43;7.60;;;5.77;;
14342;SDS011;7255;53.596;9.960;2022-11-20T03:33:11;7.20;;;5.23;;
14342;SDS011;7255;53.596;9.960;2022-11-20T03:35:37;5.93;;;5.33;;
14342;SDS011;7255;53.596;9.960;2022-11-20T03:38:04;7.10;;;6.40;;
14342;SDS011;7255;53.596;9.960;2022-11-20T03:40:30;6.70;;;5.43;;
14342;SDS011;7255;53.596;9.960;2022-11-20T03:42:56;7.47;;;5.90;;
14342;SDS011;7255;53.596;9.960;2022-11-20T03:45:23;5.50;;;5.00;;
14342;SDS011;7255;53.596;9.960;2022-11-20T03:47:49;5.60;;;5.10;;
14342;SDS011;7255;53.596;9.960;2022-11-20T03:50:17;7.17;;;6.47;;
14342;SDS011;7255;53.596;9.960;2022-11-20T03:52:44;6.60;;;6.00;;
14342;SDS011;7255;53.596;9.960;2022-11-20T03:55:10;6.37;;;5.67;;
14342;SDS011;7255;53.596;9.960;2022-11-20T03:57:36;7.00;;;5.77;;
14342;SDS011;7255;53.596;9.960;2022-11-20T04:00:03;6.20;;;5.40;;
14342;SDS011;7255;53.596;9.960;2022-11-20T04:02:30;10.07;;;6.23;;
14342;SDS011;7255;53.596;9.960;2022-11-20T04:04:57;7.53;;;5.90;;
14342;SDS011;7255;53.596;9.960;2022-11-20T04:07:25;6.27;;;5.67;;
14342;SDS011;7255;53.596;9.960;2022-11-20T04:09:51;6.53;;;5.93;;
14342;SDS011;7255;53.596;9.960;2022-11-20T04:12:17;8.40;;;6.17;;
14342;SDS011;7255;53.596;9.960;2022-11-20T04:14:44;6.77;;;6.17;;
14342;SDS011;7255;53.596;9.960;2022-11-20T04:17:10;7.63;;;5.40;;
14342;SDS011;7255;53.596;9.960;2022-11-20T04:19:36;10.63;;;6.47;;
14342;SDS011;7255;53.596;9.960;2022-11-20T04:22:03;8.07;;;6.33;;
14342;SDS011;7255;53.596;9.960;2022-11-20T04:24:30;7.33;;;6.43;;
14342;SDS011;7255;53.596;9.960;2022-11-20T04:26:57;7.10;;;6.43;;
14342;SDS011;7255;53.596;9.960;2022-11-20T04:29:23;7.60;;;6.30;;
14342;SDS011;7255;53.596;9.960;2022-11-20T04:31:49;7.43;;;6.73;;
14342;SDS011;7255;53.596;9.960;2022-11-20T04:34:15;6.77;;;5.90;;
14342;SDS011;7255;53.596;9.960;2022-11-20T04:36:42;7.97;;;5.83;;
14342;SDS011;7255;53.596;9.960;2022-11-20T04:39:12;7.90;;;6.67;;
14342;SDS011;7255;53.596;9.960;2022-11-20T04:41:41;8.03;;;7.23;;
14342;SDS011;7255;53.596;9.960;2022-11-20T04:44:07;7.70;;;6.27;;
14342;SDS011;7255;53.596;9.960;2022-11-20T04:46:34;7.47;;;5.70;;
14342;SDS011;7255;53.596;9.960;2022-11-20T04:49:01;6.43;;;5.83;;
14342;SDS011;7255;53.596;9.960;2022-11-20T04:51:28;7.30;;;5.60;;
14342;SDS011;7255;53.596;9.960;2022-11-20T04:53:54;7.37;;;6.67;;
14342;SDS011;7255;53.596;9.960;2022-11-20T04:56:21;8.20;;;6.53;;
14342;SDS011;7255;53.596;9.960;2022-11-20T04:58:48;7.07;;;6.47;;
14342;SDS011;7255;53.596;9.960;2022-11-20T05:01:16;8.70;;;6.07;;
14342;SDS011;7255;53.596;9.960;2022-11-20T05:03:44;7.17;;;5.90;;
14342;SDS011;7255;53.596;9.960;2022-11-20T05:06:11;6.53;;;5.83;;
14342;SDS011;7255;53.596;9.960;2022-11-20T05:08:39;7.67;;;6.40;;
14342;SDS011;7255;53.596;9.960;2022-11-20T05:11:07;8.17;;;6.23;;
14342;SDS011;7255;53.596;9.960;2022-11-20T05:13:35;7.33;;;6.57;;
14342;SDS011;7255;53.596;9.960;2022-11-20T05:16:03;7.47;;;6.77;;
14342;SDS011;7255;53.596;9.960;2022-11-20T05:18:31;7.63;;;6.53;;
14342;SDS011;7255;53.596;9.960;2022-11-20T05:20:58;7.30;;;6.60;;
14342;SDS011;7255;53.596;9.960;2022-11-20T05:23:25;8.23;;;7.37;;
14342;SDS011;7255;53.596;9.960;2022-11-20T05:25:52;7.07;;;6.37;;
14342;SDS011;7255;53.596;9.960;2022-11-20T05:28:19;8.63;;;6.07;;
14342;SDS011;7255;53.596;9.960;2022-11-20T05:30:46;9.57;;;7.03;;
14342;SDS011;7255;53.596;9.960;2022-11-20T05:33:13;9.00;;;6.60;;
14342;SDS011;7255;53.596;9.960;2022-11-20T05:35:40;8.40;;;6.97;;
14342;SDS011;7255;53.596;9.960;2022-11-20T05:38:06;8.07;;;6.27;;
14342;SDS011;7255;53.596;9.960;2022-11-20T05:40:33;10.23;;;7.67;;
14342;SDS011;7255;53.596;9.960;2022-11-20T05:42:59;9.80;;;7.93;;
14342;SDS011;7255;53.596;9.960;2022-11-20T05:45:26;8.27;;;7.27;;
14342;SDS011;7255;53.596;9.960;2022-11-20T05:47:53;9.43;;;7.33;;
14342;SDS011;7255;53.596;9.960;2022-11-20T05:50:21;8.10;;;7.27;;
14342;SDS011;7255;53.596;9.960;2022-11-20T05:52:47;8.10;;;7.30;;
14342;SDS011;7255;53.596;9.960;2022-11-20T05:55:13;7.90;;;7.10;;
14342;SDS011;7255;53.596;9.960;2022-11-20T05:57:40;7.73;;;7.03;;
14342;SDS011;7255;53.596;9.960;2022-11-20T06:00:07;11.50;;;6.80;;
14342;SDS011;7255;53.596;9.960;2022-11-20T06:02:34;7.67;;;6.97;;
14342;SDS011;7255;53.596;9.960;2022-11-20T06:05:00;10.90;;;8.00;;
14342;SDS011;7255;53.596;9.960;2022-11-20T06:07:28;11.43;;;8.47;;
14342;SDS011;7255;53.596;9.960;2022-11-20T06:09:54;11.73;;;8.53;;
14342;SDS011;7255;53.596;9.960;2022-11-20T06:12:21;12.47;;;9.03;;
14342;SDS011;7255;53.596;9.960;2022-11-20T06:14:47;9.80;;;8.90;;
14342;SDS011;7255;53.596;9.960;2022-11-20T06:17:13;13.37;;;10.10;;
14342;SDS011;7255;53.596;9.960;2022-11-20T06:19:40;12.93;;;10.20;;
14342;SDS011;7255;53.596;9.960;2022-11-20T06:22:06;11.43;;;10.20;;
14342;SDS011;7255;53.596;9.960;2022-11-20T06:24:34;12.10;;;10.63;;
14342;SDS011;7255;53.596;9.960;2022-11-20T06:27:00;12.27;;;10.30;;
14342;SDS011;7255;53.596;9.960;2022-11-20T06:29:26;12.63;;;10.63;;
14342;SDS011;7255;53.596;9.960;2022-11-20T06:31:53;12.60;;;11.27;;
14342;SDS011;7255;53.596;9.960;2022-11-20T06:34:20;13.13;;;10.60;;
14342;SDS011;7255;53.596;9.960;2022-11-20T06:36:46;12.33;;;9.97;;
14342;SDS011;7255;53.596;9.960;2022-11-20T06:39:12;11.40;;;9.23;;
14342;SDS011;7255;53.596;9.960;2022-11-20T06:41:40;11.13;;;9.83;;
14342;SDS011;7255;53.596;9.960;2022-11-20T06:44:06;11.30;;;9.63;;
14342;SDS011;7255;53.596;9.960;2022-11-20T06:46:33;12.70;;;10.17;;
14342;SDS011;7255;53.596;9.960;2022-11-20T06:48:59;11.57;;;8.60;;
14342;SDS011;7255;53.596;9.960;2022-11-20T06:51:25;9.83;;;8.40;;
14342;SDS011;7255;53.596;9.960;2022-11-20T06:53:52;10.10;;;9.03;;
14342;SDS011;7255;53.596;9.960;2022-11-20T06:56:19;9.00;;;8.07;;
14342;SDS011;7255;53.596;9.960;2022-11-20T06:58:46;8.27;;;7.37;;
14342;SDS011;7255;53.596;9.960;2022-11-20T07:01:13;8.73;;;7.93;;
14342;SDS011;7255;53.596;9.960;2022-11-20T07:03:40;10.90;;;8.63;;
14342;SDS011;7255;53.596;9.960;2022-11-20T07:06:07;9.60;;;8.03;;
14342;SDS011;7255;53.596;9.960;2022-11-20T07:08:34;9.17;;;7.67;;
14342;SDS011;7255;53.596;9.960;2022-11-20T07:11:01;8.23;;;7.43;;
14342;SDS011;7255;53.596;9.960;2022-11-20T07:13:28;12.53;;;8.40;;
14342;SDS011;7255;53.596;9.960;2022-11-20T07:16:00;10.10;;;8.03;;
14342;SDS011;7255;53.596;9.960;2022-11-20T07:18:27;8.33;;;7.53;;
14342;SDS011;7255;53.596;9.960;2022-11-20T07:20:54;8.50;;;7.53;;
14342;SDS011;7255;53.596;9.960;2022-11-20T07:23:20;7.67;;;6.87;;
14342;SDS011;7255;53.596;9.960;2022-11-20T07:25:46;7.80;;;7.03;;
14342;SDS011;7255;53.596;9.960;2022-11-20T07:28:13;7.70;;;7.00;;
14342;SDS011;7255;53.596;9.960;2022-11-20T07:30:39;7.60;;;6.87;;
14342;SDS011;7255;53.596;9.960;2022-11-20T07:33:07;8.23;;;6.77;;
14342;SDS011;7255;53.596;9.960;2022-11-20T07:35:33;11.60;;;7.40;;
14342;SDS011;7255;53.596;9.960;2022-11-20T07:38:00;8.43;;;7.23;;
14342;SDS011;7255;53.596;9.960;2022-11-20T07:40:27;9.20;;;7.83;;
14342;SDS011;7255;53.596;9.960;2022-11-20T07:42:54;7.70;;;6.77;;
14342;SDS011;7255;53.596;9.960;2022-11-20T07:45:22;8.90;;;7.70;;
14342;SDS011;7255;53.596;9.960;2022-11-20T07:47:49;7.63;;;6.90;;
14342;SDS011;7255;53.596;9.960;2022-11-20T07:50:17;8.00;;;7.07;;
14342;SDS011;7255;53.596;9.960;2022-11-20T07:52:44;7.97;;;7.23;;
14342;SDS011;7255;53.596;9.960;2022-11-20T07:55:10;7.73;;;7.07;;
14342;SDS011;7255;53.596;9.960;2022-11-20T07:57:37;9.20;;;7.77;;
14342;SDS011;7255;53.596;9.960;2022-11-20T08:00:04;9.20;;;7.10;;
14342;SDS011;7255;53.596;9.960;2022-11-20T08:02:33;7.83;;;6.80;;
14342;SDS011;7255;53.596;9.960;2022-11-20T08:05:00;8.30;;;7.50;;
14342;SDS011;7255;53.596;9.960;2022-11-20T08:07:27;7.40;;;6.70;;
14342;SDS011;7255;53.596;9.960;2022-11-20T08:09:53;9.23;;;7.33;;
14342;SDS011;7255;53.596;9.960;2022-11-20T08:12:20;8.63;;;7.73;;
14342;SDS011;7255;53.596;9.960;2022-11-20T08:15:05;7.87;;;6.73;;
14342;SDS011;7255;53.596;9.960;2022-11-20T08:17:32;8.10;;;7.07;;
14342;SDS011;7255;53.596;9.960;2022-11-20T08:19:58;7.37;;;6.67;;
14342;SDS011;7255;53.596;9.960;2022-11-20T08:22:25;7.80;;;6.83;;
14342;SDS011;7255;53.596;9.960;2022-11-20T08:24:52;8.67;;;6.40;;
14342;SDS011;7255;53.596;9.960;2022-11-20T08:27:19;6.70;;;5.90;;
14342;SDS011;7255;53.596;9.960;2022-11-20T08:29:45;6.57;;;5.77;;
14342;SDS011;7255;53.596;9.960;2022-11-20T08:32:11;6.23;;;5.63;;
14342;SDS011;7255;53.596;9.960;2022-11-20T08:34:38;7.00;;;6.20;;
14342;SDS011;7255;53.596;9.960;2022-11-20T08:37:04;5.63;;;5.13;;
14342;SDS011;7255;53.596;9.960;2022-11-20T08:39:30;6.27;;;5.00;;
14342;SDS011;7255;53.596;9.960;2022-11-20T08:41:58;6.17;;;5.57;;
14342;SDS011;7255;53.596;9.960;2022-11-20T08:44:24;5.57;;;5.00;;
14342;SDS011;7255;53.596;9.960;2022-11-20T08:46:50;5.57;;;4.67;;
14342;SDS011;7255;53.596;9.960;2022-11-20T08:49:17;7.20;;;5.53;;
14342;SDS011;7255;53.596;9.960;2022-11-20T08:51:43;5.73;;;5.20;;
14342;SDS011;7255;53.596;9.960;2022-11-20T08:54:10;6.03;;;5.43;;
14342;SDS011;7255;53.596;9.960;2022-11-20T08:56:36;5.47;;;4.97;;
14342;SDS011;7255;53.596;9.960;2022-11-20T08:59:04;5.80;;;5.23;;
14342;SDS011;7255;53.596;9.960;2022-11-20T09:01:30;5.30;;;4.87;;
14342;SDS011;7255;53.596;9.960;2022-11-20T09:03:56;5.30;;;4.80;;
14342;SDS011;7255;53.596;9.960;2022-11-20T09:06:24;5.30;;;4.80;;
14342;SDS011;7255;53.596;9.960;2022-11-20T09:08:51;5.30;;;4.90;;
14342;SDS011;7255;53.596;9.960;2022-11-20T09:11:18;5.23;;;4.70;;
14342;SDS011;7255;53.596;9.960;2022-11-20T09:13:44;5.87;;;5.30;;
14342;SDS011;7255;53.596;9.960;2022-11-20T09:16:12;6.57;;;5.30;;
14342;SDS011;7255;53.596;9.960;2022-11-20T09:18:38;5.80;;;5.27;;
14342;SDS011;7255;53.596;9.960;2022-11-20T09:21:05;6.07;;;5.47;;
14342;SDS011;7255;53.596;9.960;2022-11-20T09:23:34;5.93;;;5.33;;
14342;SDS011;7255;53.596;9.960;2022-11-20T09:26:02;6.93;;;6.33;;
14342;SDS011;7255;53.596;9.960;2022-11-20T09:28:29;7.37;;;5.60;;
14342;SDS011;7255;53.596;9.960;2022-11-20T09:30:56;7.10;;;6.50;;
14342;SDS011;7255;53.596;9.960;2022-11-20T09:33:24;7.57;;;6.87;;
14342;SDS011;7255;53.596;9.960;2022-11-20T09:35:50;6.40;;;5.80;;
14342;SDS011;7255;53.596;9.960;2022-11-20T09:38:16;5.77;;;5.27;;
14342;SDS011;7255;53.596;9.960;2022-11-20T09:40:44;6.60;;;5.90;;
14342;SDS011;7255;53.596;9.960;2022-11-20T09:43:16;6.30;;;5.77;;
14342;SDS011;7255;53.596;9.960;2022-11-20T09:45:50;5.87;;;5.27;;
14342;SDS011;7255;53.596;9.960;2022-11-20T09:48:35;5.97;;;5.43;;
14342;SDS011;7255;53.596;9.960;2022-11-20T09:51:10;7.50;;;6.30;;
14342;SDS011;7255;53.596;9.960;2022-11-20T09:53:45;6.80;;;6.10;;
14342;SDS011;7255;53.596;9.960;2022-11-20T09:56:19;6.40;;;5.80;;
14342;SDS011;7255;53.596;9.960;2022-11-20T09:58:47;7.73;;;6.33;;
14342;SDS011;7255;53.596;9.960;2022-11-20T10:01:16;5.90;;;5.40;;
14342;SDS011;7255;53.596;9.960;2022-11-20T10:03:49;6.43;;;5.83;;
14342;SDS011;7255;53.596;9.960;2022-11-20T10:06:21;5.70;;;5.20;;
14342;SDS011;7255;53.596;9.960;2022-11-20T10:08:55;6.30;;;5.77;;
14342;SDS011;7255;53.596;9.960;2022-11-20T10:11:32;5.77;;;5.27;;
14342;SDS011;7255;53.596;9.960;2022-11-20T10:14:09;7.27;;;5.63;;
14342;SDS011;7255;53.596;9.960;2022-11-20T10:16:43;5.53;;;4.97;;
14342;SDS011;7255;53.596;9.960;2022-11-20T10:19:25;6.07;;;5.57;;
14342;SDS011;7255;53.596;9.960;2022-11-20T10:22:00;6.60;;;5.93;;
14342;SDS011;7255;53.596;9.960;2022-11-20T10:24:39;5.50;;;5.00;;
14342;SDS011;7255;53.596;9.960;2022-11-20T10:27:15;7.77;;;5.60;;
14342;SDS011;7255;53.596;9.960;2022-11-20T10:29:59;6.03;;;5.43;;
14342;SDS011;7255;53.596;9.960;2022-11-20T10:32:30;6.70;;;6.10;;
14342;SDS011;7255;53.596;9.960;2022-11-20T10:35:04;8.10;;;5.97;;
14342;SDS011;7255;53.596;9.960;2022-11-20T10:37:40;7.13;;;6.43;;
14342;SDS011;7255;53.596;9.960;2022-11-20T10:40:15;6.20;;;5.63;;
14342;SDS011;7255;53.596;9.960;2022-11-20T10:42:47;7.50;;;6.70;;
14342;SDS011;7255;53.596;9.960;2022-11-20T10:45:19;6.83;;;6.03;;
14342;SDS011;7255;53.596;9.960;2022-11-20T10:48:00;6.23;;;5.63;;
14342;SDS011;7255;53.596;9.960;2022-11-20T10:50:38;5.90;;;5.30;;
14342;SDS011;7255;53.596;9.960;2022-11-20T10:53:14;5.40;;;4.90;;
14342;SDS011;7255;53.596;9.960;2022-11-20T10:55:48;7.03;;;5.50;;
14342;SDS011;7255;53.596;9.960;2022-11-20T10:58:22;5.97;;;5.37;;
14342;SDS011;7255;53.596;9.960;2022-11-20T11:01:02;6.00;;;5.40;;
14342;SDS011;7255;53.596;9.960;2022-11-20T11:03:30;5.80;;;5.20;;
14342;SDS011;7255;53.596;9.960;2022-11-20T11:06:00;7.70;;;6.90;;
14342;SDS011;7255;53.596;9.960;2022-11-20T11:08:35;5.93;;;5.33;;
14342;SDS011;7255;53.596;9.960;2022-11-20T11:11:07;5.00;;;4.60;;
14342;SDS011;7255;53.596;9.960;2022-11-20T11:13:44;5.73;;;5.23;;
14342;SDS011;7255;53.596;9.960;2022-11-20T11:16:16;5.83;;;5.33;;
14342;SDS011;7255;53.596;9.960;2022-11-20T11:18:46;6.13;;;5.33;;
14342;SDS011;7255;53.596;9.960;2022-11-20T11:21:19;5.20;;;4.73;;
14342;SDS011;7255;53.596;9.960;2022-11-20T11:23:56;5.47;;;4.97;;
14342;SDS011;7255;53.596;9.960;2022-11-20T11:26:24;6.37;;;5.77;;
14342;SDS011;7255;53.596;9.960;2022-11-20T11:28:54;4.90;;;4.50;;
14342;SDS011;7255;53.596;9.960;2022-11-20T11:31:22;5.57;;;4.80;;
14342;SDS011;7255;53.596;9.960;2022-11-20T11:33:49;5.23;;;4.73;;
14342;SDS011;7255;53.596;9.960;2022-11-20T11:36:17;6.93;;;5.30;;
14342;SDS011;7255;53.596;9.960;2022-11-20T11:38:50;4.83;;;4.43;;
14342;SDS011;7255;53.596;9.960;2022-11-20T11:41:19;4.30;;;3.90;;
14342;SDS011;7255;53.596;9.960;2022-11-20T11:43:51;5.17;;;4.67;;
14342;SDS011;7255;53.596;9.960;2022-11-20T11:46:37;4.80;;;4.40;;
14342;SDS011;7255;53.596;9.960;2022-11-20T11:49:14;4.43;;;4.13;;
14342;SDS011;7255;53.596;9.960;2022-11-20T11:51:47;4.30;;;3.87;;
14342;SDS011;7255;53.596;9.960;2022-11-20T11:54:25;4.10;;;3.80;;
14342;SDS011;7255;53.596;9.960;2022-11-20T11:56:57;4.33;;;3.93;;
14342;SDS011;7255;53.596;9.960;2022-11-20T11:59:27;3.90;;;3.60;;
14342;SDS011;7255;53.596;9.960;2022-11-20T12:02:04;4.40;;;4.10;;
14342;SDS011;7255;53.596;9.960;2022-11-20T12:04:49;3.70;;;3.40;;
14342;SDS011;7255;53.596;9.960;2022-11-20T12:07:22;4.13;;;3.73;;
14342;SDS011;7255;53.596;9.960;2022-11-20T12:10:01;4.57;;;4.17;;
14342;SDS011;7255;53.596;9.960;2022-11-20T12:12:30;4.23;;;3.83;;
14342;SDS011;7255;53.596;9.960;2022-11-20T12:15:02;4.07;;;3.67;;
14342;SDS011;7255;53.596;9.960;2022-11-20T12:17:30;4.50;;;4.10;;
14342;SDS011;7255;53.596;9.960;2022-11-20T12:19:57;4.30;;;3.90;;
14342;SDS011;7255;53.596;9.960;2022-11-20T12:22:27;3.90;;;3.60;;
14342;SDS011;7255;53.596;9.960;2022-11-20T12:25:06;4.20;;;3.80;;
14342;SDS011;7255;53.596;9.960;2022-11-20T12:27:45;3.77;;;3.47;;
14342;SDS011;7255;53.596;9.960;2022-11-20T12:30:21;3.77;;;3.47;;
14342;SDS011;7255;53.596;9.960;2022-11-20T12:32:59;4.13;;;3.80;;
14342;SDS011;7255;53.596;9.960;2022-11-20T12:35:47;3.80;;;3.50;;
14342;SDS011;7255;53.596;9.960;2022-11-20T12:38:33;3.67;;;3.37;;
14342;SDS011;7255;53.596;9.960;2022-11-20T12:41:12;3.77;;;3.47;;
14342;SDS011;7255;53.596;9.960;2022-11-20T12:44:03;3.90;;;3.60;;
14342;SDS011;7255;53.596;9.960;2022-11-20T12:46:53;4.43;;;4.13;;
14342;SDS011;7255;53.596;9.960;2022-11-20T12:49:31;3.47;;;3.27;;
14342;SDS011;7255;53.596;9.960;2022-11-20T12:52:11;4.20;;;3.90;;
14342;SDS011;7255;53.596;9.960;2022-11-20T12:54:56;4.50;;;4.10;;
14342;SDS011;7255;53.596;9.960;2022-11-20T12:57:36;4.40;;;4.00;;
14342;SDS011;7255;53.596;9.960;2022-11-20T13:00:14;3.97;;;3.67;;
14342;SDS011;7255;53.596;9.960;2022-11-20T13:05:49;4.43;;;4.03;;
14342;SDS011;7255;53.596;9.960;2022-11-20T13:08:22;4.37;;;3.83;;
14342;SDS011;7255;53.596;9.960;2022-11-20T13:10:54;3.83;;;3.53;;
14342;SDS011;7255;53.596;9.960;2022-11-20T13:13:28;3.50;;;3.20;;
14342;SDS011;7255;53.596;9.960;2022-11-20T13:16:01;3.07;;;2.87;;
14342;SDS011;7255;53.596;9.960;2022-11-20T13:18:34;3.20;;;3.00;;
14342;SDS011;7255;53.596;9.960;2022-11-20T13:21:12;3.07;;;2.77;;
14342;SDS011;7255;53.596;9.960;2022-11-20T13:23:39;3.27;;;3.07;;
14342;SDS011;7255;53.596;9.960;2022-11-20T13:26:13;3.23;;;3.03;;
14342;SDS011;7255;53.596;9.960;2022-11-20T13:28:42;3.37;;;3.10;;
14342;SDS011;7255;53.596;9.960;2022-11-20T13:31:09;3.60;;;3.30;;
14342;SDS011;7255;53.596;9.960;2022-11-20T13:33:54;3.37;;;3.07;;
14342;SDS011;7255;53.596;9.960;2022-11-20T13:36:22;2.90;;;2.70;;
14342;SDS011;7255;53.596;9.960;2022-11-20T13:38:51;4.30;;;3.00;;
14342;SDS011;7255;53.596;9.960;2022-11-20T13:41:24;2.97;;;2.80;;
14342;SDS011;7255;53.596;9.960;2022-11-20T13:43:57;3.57;;;3.27;;
14342;SDS011;7255;53.596;9.960;2022-11-20T13:46:34;3.20;;;3.00;;
14342;SDS011;7255;53.596;9.960;2022-11-20T13:49:06;3.70;;;3.40;;
14342;SDS011;7255;53.596;9.960;2022-11-20T13:51:35;5.27;;;3.80;;
14342;SDS011;7255;53.596;9.960;2022-11-20T13:54:14;4.20;;;3.80;;
14342;SDS011;7255;53.596;9.960;2022-11-20T13:56:53;4.60;;;4.10;;
14342;SDS011;7255;53.596;9.960;2022-11-20T13:59:35;4.20;;;3.90;;
14342;SDS011;7255;53.596;9.960;2022-11-20T14:02:10;4.83;;;4.43;;
14342;SDS011;7255;53.596;9.960;2022-11-20T14:04:41;5.03;;;4.57;;
14342;SDS011;7255;53.596;9.960;2022-11-20T14:07:09;5.53;;;4.00;;
14342;SDS011;7255;53.596;9.960;2022-11-20T14:09:36;4.07;;;3.77;;
14342;SDS011;7255;53.596;9.960;2022-11-20T14:12:12;4.10;;;3.70;;
14342;SDS011;7255;53.596;9.960;2022-11-20T14:14:47;4.07;;;3.60;;
14342;SDS011;7255;53.596;9.960;2022-11-20T14:17:17;4.37;;;3.97;;
14342;SDS011;7255;53.596;9.960;2022-11-20T14:19:45;5.07;;;4.60;;
14342;SDS011;7255;53.596;9.960;2022-11-20T14:22:17;4.63;;;4.23;;
14342;SDS011;7255;53.596;9.960;2022-11-20T14:24:46;4.90;;;4.50;;
14342;SDS011;7255;53.596;9.960;2022-11-20T14:27:14;5.13;;;4.30;;
14342;SDS011;7255;53.596;9.960;2022-11-20T14:29:44;4.67;;;3.90;;
14342;SDS011;7255;53.596;9.960;2022-11-20T14:32:11;4.53;;;4.13;;
14342;SDS011;7255;53.596;9.960;2022-11-20T14:34:41;3.83;;;3.53;;
14342;SDS011;7255;53.596;9.960;2022-11-20T14:37:11;4.23;;;3.70;;
14342;SDS011;7255;53.596;9.960;2022-11-20T14:39:47;4.50;;;4.13;;
14342;SDS011;7255;53.596;9.960;2022-11-20T14:42:18;4.87;;;4.40;;
14342;SDS011;7255;53.596;9.960;2022-11-20T14:44:46;5.67;;;3.83;;
14342;SDS011;7255;53.596;9.960;2022-11-20T14:47:15;4.47;;;4.07;;
14342;SDS011;7255;53.596;9.960;2022-11-20T14:49:44;4.73;;;4.33;;
14342;SDS011;7255;53.596;9.960;2022-11-20T14:52:12;5.23;;;4.73;;
14342;SDS011;7255;53.596;9.960;2022-11-20T14:54:44;4.43;;;4.07;;
14342;SDS011;7255;53.596;9.960;2022-11-20T14:57:23;4.80;;;4.03;;
14342;SDS011;7255;53.596;9.960;2022-11-20T14:59:51;4.73;;;4.33;;
14342;SDS011;7255;53.596;9.960;2022-11-20T15:02:29;6.67;;;6.07;;
14342;SDS011;7255;53.596;9.960;2022-11-20T15:04:56;6.70;;;5.83;;
14342;SDS011;7255;53.596;9.960;2022-11-20T15:07:24;6.87;;;6.17;;
14342;SDS011;7255;53.596;9.960;2022-11-20T15:10:03;7.20;;;6.50;;
14342;SDS011;7255;53.596;9.960;2022-11-20T15:12:32;8.40;;;6.60;;
14342;SDS011;7255;53.596;9.960;2022-11-20T15:15:01;6.07;;;5.57;;
14342;SDS011;7255;53.596;9.960;2022-11-20T15:17:30;6.03;;;5.40;;